Jefferson, OH

7:17 AM EST on December 11, 2016 (GMT -0500)
Ashtabula County

Weather History for KHZY - January, 2013

Change the Weather History Date:

Wednesday, January 23, 2013

  Actual Average (KGKJ) Record (KGKJ)
Temperature  
Mean Temperature 9 °F -  
Max Temperature 12 °F 34 °F 53 °F (1957)
Min Temperature 6 °F 18 °F -10 °F (1977)
Degree Days  
Heating Degree Days 56    
Moisture  
Dew Point 3 °F    
Average Humidity 78    
Maximum Humidity 85    
Minimum Humidity 59    
Precipitation  
Precipitation 0.18 in - - ()
Sea Level Pressure  
Sea Level Pressure 30.21 in    
Wind  
Wind Speed 8 mph (SW)    
Max Wind Speed 12 mph    
Max Gust Speed -    
Visibility 2 miles    
Events Snow    
Averages and records for this station are not official NWS values.
T = Trace of Precipitation, MM = Missing Value Source: NWS Daily Summary

Daily Weather History Graph

Daily Weather History Graph

Search for Another Location

Airport or City:

Trip Planner

Search our weather history database for the weather conditions in past years. The results will help you decide how hot, cold, wet, or windy it might be!

Date:

Astronomy

Jan. 23, 2013 Rise Set
Actual Time 7:42 AM EST 5:27 PM EST
Civil Twilight 7:12 AM EST 5:57 PM EST
Nautical Twilight 6:38 AM EST 6:31 PM EST
Astronomical Twilight 6:05 AM EST 7:04 PM EST
Moon 2:35 PM EST (1/23) 4:53 AM EST (1/23)
Length of Visible Light 10h 44m
Length of Day
9h 44m
Waxing Gibbous, 89% of the Moon is Illuminated
Jan 23
Waxing Gibbous
Jan 26
Full
Feb 3
Last Quarter
Feb 10
New
Feb 17
First Quarter

Hourly Weather History & Observations

Time (EST) Temp. Windchill Dew Point Humidity Pressure Visibility Wind Dir Wind Speed Gust Speed Precip Events Conditions
12:19 AM 8.6 °F -5.5 °F 1.4 °F 73% 30.19 in 1.0 mi SW 10.4 mph - 0.02 in Snow Light Snow
12:41 AM 8.6 °F -5.5 °F 1.4 °F 73% 30.19 in 0.8 mi SW 10.4 mph - 0.03 in Snow Light Snow
12:53 AM 8.1 °F -3.2 °F 3.0 °F 80% 30.26 in 1.0 mi WSW 6.9 mph - 0.03 in Snow Light Snow
1:06 AM 8.6 °F -4.7 °F 3.2 °F 79% 30.19 in 1.2 mi SW 9.2 mph - 0.01 in Snow Light Snow
1:23 AM 8.6 °F -2.6 °F 3.2 °F 79% 30.19 in 1.2 mi WSW 6.9 mph - 0.01 in Snow Light Snow
1:35 AM 8.6 °F -4.7 °F 3.2 °F 79% 30.19 in 2.0 mi WSW 9.2 mph - 0.01 in Snow Light Snow
1:42 AM 8.6 °F -3.7 °F 3.2 °F 79% 30.19 in 1.2 mi SW 8.1 mph - 0.01 in Snow Light Snow
1:53 AM 8.1 °F -2.0 °F 3.0 °F 80% 30.26 in 2.0 mi SW 5.8 mph - 0.02 in Snow Light Snow
2:09 AM 8.6 °F -3.7 °F 3.2 °F 79% 30.20 in 1.2 mi WSW 8.1 mph - 0.00 in Snow Light Snow
2:13 AM 8.6 °F -2.6 °F 3.2 °F 79% 30.20 in 0.8 mi WSW 6.9 mph - 0.00 in Snow Light Snow
2:21 AM 8.6 °F -1.3 °F 3.2 °F 79% 30.20 in 0.8 mi SW 5.8 mph - 0.01 in Snow Light Snow
2:31 AM 8.6 °F 0.1 °F 3.2 °F 79% 30.20 in 1.2 mi SW 4.6 mph - 0.01 in Snow Light Snow
2:38 AM 8.6 °F -1.3 °F 3.2 °F 79% 30.20 in 2.5 mi SW 5.8 mph - 0.02 in Snow Light Snow
2:50 AM 8.6 °F -2.6 °F 3.2 °F 79% 30.20 in 1.2 mi WSW 6.9 mph - 0.02 in Snow Light Snow
2:53 AM 8.1 °F -3.2 °F 3.0 °F 80% 30.27 in 1.2 mi WSW 6.9 mph - 0.02 in Snow Light Snow
3:14 AM 6.8 °F -4.8 °F 3.2 °F 85% 30.20 in 3.0 mi SW 6.9 mph - 0.00 in Snow Light Snow
3:24 AM 6.8 °F -3.5 °F 1.4 °F 79% 30.20 in 6.0 mi SW 5.8 mph - 0.00 in   Haze
3:31 AM 8.6 °F -1.3 °F 3.2 °F 79% 30.20 in 2.5 mi SW 5.8 mph - 0.00 in Snow Light Snow
3:38 AM 8.6 °F -1.3 °F 3.2 °F 79% 30.20 in 1.0 mi SW 5.8 mph - 0.00 in Snow Light Snow
3:48 AM 8.6 °F 0.1 °F 3.2 °F 79% 30.20 in 0.8 mi SW 4.6 mph - 0.01 in Snow Light Snow
3:53 AM 8.1 °F -0.5 °F 3.0 °F 80% 30.26 in 0.8 mi SW 4.6 mph - 0.01 in Snow Light Snow
3:58 AM 8.6 °F -1.3 °F 3.2 °F 79% 30.20 in 1.2 mi SW 5.8 mph - 0.00 in Snow Light Snow
4:08 AM 8.6 °F 0.1 °F 3.2 °F 79% 30.20 in 1.0 mi WSW 4.6 mph - 0.01 in Snow Light Snow
4:20 AM 8.6 °F -2.6 °F 3.2 °F 79% 30.20 in 1.0 mi SW 6.9 mph - 0.01 in Snow Light Snow
4:30 AM 8.6 °F -1.3 °F 3.2 °F 79% 30.20 in 1.5 mi SW 5.8 mph - 0.01 in Snow Light Snow
4:42 AM 6.8 °F -4.8 °F 1.4 °F 79% 30.20 in 1.8 mi SW 6.9 mph - 0.01 in Snow Light Snow
4:53 AM 7.0 °F -4.5 °F 1.9 °F 80% 30.26 in 2.5 mi SW 6.9 mph - 0.01 in Snow Light Snow
5:26 AM 6.8 °F -4.8 °F 1.4 °F 79% 30.20 in 1.8 mi SW 6.9 mph - 0.00 in Snow Light Snow
5:31 AM 6.8 °F -4.8 °F 1.4 °F 79% 30.20 in 0.8 mi SW 6.9 mph - 0.00 in Snow Light Snow
5:39 AM 6.8 °F -2.0 °F 1.4 °F 79% 30.20 in 1.2 mi WSW 4.6 mph - 0.00 in Snow Light Snow
5:44 AM 6.8 °F -5.9 °F 1.4 °F 79% 30.20 in 3.0 mi WSW 8.1 mph - 0.00 in Snow Light Snow
5:50 AM 6.8 °F -5.9 °F 1.4 °F 79% 30.20 in 1.8 mi SW 8.1 mph - 0.01 in Snow Light Snow
5:53 AM 7.0 °F -4.5 °F 1.9 °F 80% 30.27 in 1.5 mi SW 6.9 mph - 0.01 in Snow Light Snow
6:15 AM 6.8 °F -4.8 °F 1.4 °F 79% 30.20 in 1.2 mi SW 6.9 mph - 0.00 in Snow Light Snow
6:25 AM 6.8 °F -4.8 °F 1.4 °F 79% 30.20 in 0.8 mi SW 6.9 mph - 0.00 in Snow Light Snow
6:40 AM 6.8 °F -3.5 °F 1.4 °F 79% 30.21 in 1.2 mi WSW 5.8 mph - 0.00 in Snow Light Snow
6:45 AM 6.8 °F -5.9 °F 1.4 °F 79% 30.21 in 1.0 mi SW 8.1 mph - 0.00 in Snow Light Snow
6:53 AM 7.0 °F -4.5 °F 1.9 °F 80% 30.27 in 0.8 mi SW 6.9 mph - 0.01 in Snow Light Snow
6:56 AM 6.8 °F -5.9 °F 1.4 °F 79% 30.21 in 1.0 mi SW 8.1 mph - 0.00 in Snow Light Snow
7:04 AM 6.8 °F -5.9 °F 1.4 °F 79% 30.21 in 0.8 mi SW 8.1 mph - 0.00 in Snow Light Snow
7:28 AM 6.8 °F -4.8 °F 1.4 °F 79% 30.22 in 1.0 mi SW 6.9 mph - 0.00 in Snow Light Snow
7:40 AM 6.8 °F -5.9 °F 1.4 °F 79% 30.22 in 1.0 mi SW 8.1 mph - 0.00 in Snow Light Snow
7:48 AM 6.8 °F -5.9 °F 1.4 °F 79% 30.22 in 1.2 mi SW 8.1 mph - 0.00 in Snow Light Snow
7:49 AM 7.0 °F -5.7 °F 1.9 °F 80% 30.28 in 1.2 mi SW 8.1 mph - 0.00 in Snow Light Snow
8:09 AM 6.8 °F -5.9 °F 1.4 °F 79% 30.22 in 0.8 mi SW 8.1 mph - 0.00 in Snow Light Snow
8:28 AM 6.8 °F -4.8 °F 1.4 °F 79% 30.22 in 0.2 mi SW 6.9 mph - 0.01 in Snow Heavy Snow
8:53 AM 8.1 °F -4.3 °F 3.0 °F 80% 30.28 in 0.2 mi SW 8.1 mph - 0.01 in Snow Heavy Snow
9:06 AM 8.6 °F -3.7 °F 3.2 °F 79% 30.22 in 0.8 mi WSW 8.1 mph - 0.00 in Snow Light Snow
9:44 AM 8.6 °F -3.7 °F 3.2 °F 79% 30.22 in 0.5 mi SW 8.1 mph - 0.02 in Snow Snow
9:53 AM 8.1 °F -4.3 °F 3.0 °F 80% 30.28 in 0.2 mi SW 8.1 mph - 0.02 in Snow Heavy Snow
10:35 AM 8.6 °F -4.7 °F 3.2 °F 79% 30.22 in 0.8 mi SW 9.2 mph - 0.03 in Snow Light Snow
10:53 AM 10.0 °F -4.5 °F 3.9 °F 76% 30.29 in 0.8 mi SW 11.5 mph - 0.03 in Snow Light Snow
11:28 AM 10.4 °F -4.1 °F 3.2 °F 73% 30.22 in 0.5 mi WSW 11.5 mph - 0.00 in Snow Snow
11:36 AM 10.4 °F -2.4 °F 5.0 °F 79% 30.21 in 0.5 mi WSW 9.2 mph - 0.00 in Snow Snow
11:53 AM 10.0 °F -4.5 °F 3.9 °F 76% 30.27 in 0.5 mi WSW 11.5 mph - 0.00 in Snow Snow
12:53 PM 10.9 °F -1.8 °F 5.0 °F 77% 30.25 in 0.5 mi WSW 9.2 mph - 0.00 in Snow Snow
1:06 PM 10.4 °F -4.1 °F 5.0 °F 79% 30.18 in 0.5 mi WSW 11.5 mph - 0.00 in Snow Snow
1:53 PM 10.9 °F -1.8 °F 6.1 °F 81% 30.22 in 0.2 mi West 9.2 mph - 0.00 in Snow Heavy Snow
2:07 PM 12.2 °F -0.2 °F 5.0 °F 73% 30.16 in 0.5 mi West 9.2 mph - 0.00 in Snow Snow
2:30 PM 12.2 °F -0.2 °F 6.8 °F 79% 30.15 in 1.2 mi West 9.2 mph - 0.01 in Snow Light Snow
2:53 PM 12.0 °F -2.0 °F 3.9 °F 70% 30.21 in 3.0 mi West 11.5 mph - 0.01 in Snow Light Snow
3:50 PM 12.2 °F 0.7 °F 3.2 °F 67% 30.14 in 5.0 mi SW 8.1 mph - 0.00 in   Haze
3:53 PM 12.9 °F -0.9 °F 3.9 °F 67% 30.20 in 5.0 mi WSW 11.5 mph - 0.00 in   Haze
4:53 PM 12.9 °F 0.7 °F 1.0 °F 59% 30.18 in 10.0 mi SW 9.2 mph - N/A   Overcast
5:53 PM 12.0 °F 0.5 °F 1.9 °F 64% 30.17 in 10.0 mi SSW 8.1 mph - N/A   Overcast
6:53 PM 10.9 °F -0.8 °F 3.9 °F 73% 30.16 in 10.0 mi South 8.1 mph - N/A   Overcast
7:53 PM 10.9 °F -0.8 °F 3.9 °F 73% 30.16 in 7.0 mi South 8.1 mph - N/A   Overcast
8:53 PM 10.9 °F -1.8 °F 5.0 °F 77% 30.14 in 5.0 mi South 9.2 mph - N/A   Haze
9:53 PM 10.0 °F -2.9 °F 3.9 °F 76% 30.13 in 10.0 mi South 9.2 mph - N/A   Scattered Clouds
10:53 PM 8.1 °F -2.0 °F 3.0 °F 80% 30.13 in 9.0 mi South 5.8 mph - N/A   Mostly Cloudy
11:53 PM 9.0 °F -2.2 °F 3.9 °F 80% 30.10 in 9.0 mi South 6.9 mph - N/A   Overcast